createdAt,value
2023-05-09T00:00:18.104Z,60.18
2023-05-09T00:03:06.043Z,60.39
2023-05-09T00:05:34.017Z,60.96
2023-05-09T00:08:02.083Z,62.00
2023-05-09T00:10:29.890Z,62.19
2023-05-09T00:12:59.045Z,61.72
2023-05-09T00:15:27.081Z,61.40
2023-05-09T00:17:54.952Z,61.33
2023-05-09T00:20:23.022Z,60.99
2023-05-09T00:22:51.276Z,60.92
2023-05-09T00:25:19.164Z,60.41
2023-05-09T00:27:47.248Z,60.07
2023-05-09T00:30:15.285Z,60.14
2023-05-09T00:32:43.217Z,60.02
2023-05-09T00:35:11.209Z,60.15
2023-05-09T00:37:39.013Z,60.13
2023-05-09T00:40:09.457Z,60.09
2023-05-09T00:42:37.406Z,60.14
2023-05-09T00:45:12.822Z,60.25
2023-05-09T00:47:41.602Z,60.35
2023-05-09T00:50:10.126Z,60.25
2023-05-09T00:52:39.234Z,60.13
2023-05-09T00:55:09.213Z,59.84
2023-05-09T00:57:37.883Z,59.67
2023-05-09T01:00:06.959Z,59.07
2023-05-09T01:02:34.868Z,58.99
2023-05-09T01:05:02.951Z,59.42
2023-05-09T01:07:43.697Z,59.84
2023-05-09T01:10:35.115Z,60.14
2023-05-09T01:13:28.502Z,60.38
2023-05-09T01:16:17.564Z,60.77
2023-05-09T01:19:13.644Z,61.00
2023-05-09T01:21:47.978Z,61.34
2023-05-09T01:25:05.378Z,61.58
2023-05-09T01:28:01.207Z,61.65
2023-05-09T01:30:31.299Z,61.61
2023-05-09T01:33:04.081Z,61.73
2023-05-09T01:35:37.665Z,61.64
2023-05-09T01:38:17.479Z,61.57
2023-05-09T01:40:52.127Z,61.54
2023-05-09T01:43:22.976Z,61.54
2023-05-09T01:45:52.960Z,61.56
2023-05-09T01:48:26.391Z,61.54
2023-05-09T01:50:57.553Z,61.49
2023-05-09T01:53:28.196Z,61.46
2023-05-09T01:55:59.475Z,62.01
2023-05-09T01:58:29.071Z,61.85
2023-05-09T02:00:57.263Z,61.50
2023-05-09T02:03:26.410Z,61.47
2023-05-09T02:05:57.101Z,61.36
2023-05-09T02:08:26.439Z,60.86
2023-05-09T02:10:54.326Z,60.59
2023-05-09T02:13:22.166Z,60.27
2023-05-09T02:15:50.646Z,60.08
2023-05-09T02:18:18.872Z,60.08
2023-05-09T02:20:47.847Z,59.96
2023-05-09T02:23:15.747Z,59.76
2023-05-09T02:25:44.478Z,59.66
2023-05-09T02:28:13.649Z,59.57
2023-05-09T02:30:45.899Z,59.19
2023-05-09T02:33:14.132Z,58.95
2023-05-09T02:35:45.527Z,59.18
2023-05-09T02:38:15.795Z,59.43
2023-05-09T02:40:44.735Z,59.83
2023-05-09T02:43:12.752Z,60.03
2023-05-09T02:45:40.879Z,60.26
2023-05-09T02:48:09.459Z,60.52
2023-05-09T02:50:42.955Z,60.63
2023-05-09T02:53:10.932Z,60.72
2023-05-09T02:55:38.916Z,60.94
2023-05-09T02:58:13.959Z,61.17
2023-05-09T03:00:43.977Z,61.23
2023-05-09T03:03:12.207Z,62.66
2023-05-09T03:05:40.229Z,62.71
2023-05-09T03:08:08.117Z,62.30
2023-05-09T03:10:36.020Z,61.54
2023-05-09T03:13:04.138Z,61.14
2023-05-09T03:15:32.100Z,60.51
2023-05-09T03:18:00.215Z,60.28
2023-05-09T03:20:28.044Z,60.17
2023-05-09T03:22:55.950Z,60.46
2023-05-09T03:25:24.207Z,60.78
2023-05-09T03:27:52.047Z,61.40
2023-05-09T03:30:20.163Z,61.51
2023-05-09T03:32:48.020Z,61.56
2023-05-09T03:35:16.341Z,61.85
2023-05-09T03:37:44.357Z,61.93
2023-05-09T03:40:12.547Z,62.64
2023-05-09T03:42:40.454Z,62.85
2023-05-09T03:45:09.150Z,61.40
2023-05-09T03:47:36.942Z,59.60
2023-05-09T03:50:05.899Z,57.46
2023-05-09T03:52:33.890Z,55.48
2023-05-09T03:55:01.871Z,53.64
2023-05-09T03:57:29.662Z,51.64
2023-05-09T03:59:57.485Z,49.81
2023-05-09T04:02:25.756Z,48.00
2023-05-09T04:04:53.831Z,46.23
2023-05-09T04:07:22.212Z,44.51
2023-05-09T04:09:50.471Z,42.74
2023-05-09T04:12:18.626Z,41.14
2023-05-09T04:14:48.891Z,40.00
2023-05-09T04:17:17.150Z,39.25
2023-05-09T04:19:45.152Z,38.08
2023-05-09T04:22:13.087Z,36.72
2023-05-09T04:24:41.428Z,36.00
2023-05-09T04:27:09.378Z,34.47
2023-05-09T04:29:38.632Z,33.78
2023-05-09T04:32:06.569Z,33.97
2023-05-09T04:34:34.524Z,33.27
2023-05-09T04:37:02.859Z,32.46
2023-05-09T04:39:30.745Z,31.56
2023-05-09T04:42:01.338Z,31.05
2023-05-09T04:44:29.131Z,30.31
2023-05-09T04:46:58.285Z,29.43
2023-05-09T04:49:26.220Z,28.45
2023-05-09T04:51:54.090Z,27.82
2023-05-09T04:54:22.065Z,27.11
2023-05-09T04:56:50.759Z,26.63
2023-05-09T04:59:19.015Z,26.06
2023-05-09T05:01:50.389Z,25.43
2023-05-09T05:04:18.872Z,24.85
2023-05-09T05:06:46.780Z,24.15
2023-05-09T05:09:14.657Z,23.64
2023-05-09T05:11:53.172Z,22.87
2023-05-09T05:14:26.721Z,23.16
2023-05-09T05:16:54.540Z,23.78
2023-05-09T05:19:22.299Z,24.50
2023-05-09T05:21:50.202Z,23.30
2023-05-09T05:24:18.057Z,23.64
2023-05-09T05:26:45.921Z,22.85
2023-05-09T05:29:13.676Z,23.01
2023-05-09T05:31:41.457Z,24.89
2023-05-09T05:34:09.257Z,25.76
2023-05-09T05:36:37.014Z,26.32
2023-05-09T05:39:04.841Z,28.18
2023-05-09T05:41:32.639Z,28.36
2023-05-09T05:44:00.683Z,28.68
2023-05-09T05:46:28.463Z,30.61
2023-05-09T05:48:56.752Z,31.61
2023-05-09T05:51:24.677Z,32.62
2023-05-09T05:53:52.445Z,34.19
2023-05-09T05:56:20.823Z,34.59
2023-05-09T05:58:48.702Z,35.33
2023-05-09T06:01:16.700Z,36.81
2023-05-09T06:03:44.617Z,38.04
2023-05-09T06:06:12.596Z,39.00
2023-05-09T06:08:40.423Z,39.45
2023-05-09T06:11:08.306Z,39.75
2023-05-09T06:13:36.206Z,37.72
2023-05-09T06:16:18.504Z,38.63
2023-05-09T06:18:48.597Z,39.06
2023-05-09T06:21:16.472Z,38.58
2023-05-09T06:24:01.512Z,38.99
2023-05-09T06:26:32.111Z,39.33
2023-05-09T06:28:59.928Z,39.06
2023-05-09T06:31:27.748Z,39.78
2023-05-09T06:33:56.054Z,39.66
2023-05-09T06:36:23.794Z,39.37
2023-05-09T06:38:51.623Z,39.17
2023-05-09T06:41:19.396Z,40.06
2023-05-09T06:43:48.002Z,40.46
2023-05-09T06:46:16.180Z,40.41
2023-05-09T06:48:44.024Z,40.43
2023-05-09T06:51:11.882Z,40.18
2023-05-09T06:53:39.738Z,40.02
2023-05-09T06:56:07.717Z,40.02
2023-05-09T06:58:36.472Z,39.73
2023-05-09T07:01:04.643Z,39.88
2023-05-09T07:03:32.388Z,39.65
2023-05-09T07:06:00.242Z,38.91
2023-05-09T07:08:28.047Z,38.58
2023-05-09T07:10:55.956Z,38.70
2023-05-09T07:13:23.870Z,38.73
2023-05-09T07:15:51.865Z,38.66
2023-05-09T07:18:19.653Z,38.24
2023-05-09T07:20:47.505Z,38.63
2023-05-09T07:23:15.366Z,38.70
2023-05-09T07:25:44.822Z,38.44
2023-05-09T07:28:12.910Z,38.23
2023-05-09T07:30:40.933Z,38.08
2023-05-09T07:33:08.852Z,38.20
2023-05-09T07:35:36.758Z,38.10
2023-05-09T07:38:06.453Z,37.46
2023-05-09T07:40:36.603Z,37.81
2023-05-09T07:43:04.932Z,37.94
2023-05-09T07:45:33.187Z,37.69
2023-05-09T07:48:01.079Z,37.03
2023-05-09T07:50:29.139Z,36.67
2023-05-09T07:52:57.129Z,36.27
2023-05-09T07:55:24.952Z,35.96
2023-05-09T07:57:52.886Z,35.68
2023-05-09T08:00:24.183Z,34.89
2023-05-09T08:02:52.933Z,34.79
2023-05-09T08:05:21.026Z,34.67
2023-05-09T08:07:48.996Z,34.65
2023-05-09T08:10:17.118Z,34.39
2023-05-09T08:12:44.958Z,34.28
2023-05-09T08:15:13.084Z,34.04
2023-05-09T08:17:41.263Z,33.70
2023-05-09T08:20:09.962Z,33.11
2023-05-09T08:22:40.574Z,32.21
2023-05-09T08:25:09.388Z,31.87
2023-05-09T08:27:37.362Z,31.19
2023-05-09T08:30:06.584Z,29.86
2023-05-09T08:32:34.401Z,30.03
2023-05-09T08:35:02.419Z,30.22
2023-05-09T08:37:30.742Z,30.17
2023-05-09T08:39:58.519Z,29.97
2023-05-09T08:42:28.116Z,29.37
2023-05-09T08:44:56.358Z,29.64
2023-05-09T08:47:24.860Z,29.42
2023-05-09T08:49:54.143Z,29.62
2023-05-09T08:52:22.173Z,29.31
2023-05-09T08:54:51.596Z,29.26
2023-05-09T08:57:19.619Z,30.05
2023-05-09T08:59:49.811Z,30.07
2023-05-09T09:02:18.590Z,29.99
2023-05-09T09:04:47.024Z,29.75
2023-05-09T09:07:16.481Z,28.86
2023-05-09T09:09:47.876Z,29.22
2023-05-09T09:12:17.781Z,29.52
2023-05-09T09:14:54.049Z,29.86
2023-05-09T09:17:28.296Z,29.65
2023-05-09T09:20:03.067Z,29.58
2023-05-09T09:22:34.335Z,29.47
2023-05-09T09:25:04.190Z,28.07
2023-05-09T09:27:32.458Z,28.77
2023-05-09T09:30:12.546Z,29.09
2023-05-09T09:32:40.789Z,29.33
2023-05-09T09:35:11.869Z,29.26
2023-05-09T09:37:42.947Z,28.89
2023-05-09T09:40:13.334Z,28.68
2023-05-09T09:42:47.067Z,28.76
2023-05-09T09:45:20.447Z,28.98
2023-05-09T09:47:50.467Z,28.78
2023-05-09T09:50:23.251Z,28.68
2023-05-09T09:52:54.615Z,28.57
2023-05-09T09:55:24.530Z,28.47
2023-05-09T09:57:53.198Z,28.72
2023-05-09T10:00:28.949Z,29.11
2023-05-09T10:03:00.137Z,29.37
2023-05-09T10:05:32.614Z,29.51
2023-05-09T10:08:05.375Z,29.56
2023-05-09T10:10:38.276Z,29.58
2023-05-09T10:13:12.307Z,29.65
2023-05-09T10:15:52.907Z,29.72
2023-05-09T10:18:31.277Z,29.79
2023-05-09T10:21:02.227Z,29.96
2023-05-09T10:23:33.018Z,29.52
2023-05-09T10:26:18.704Z,29.67
2023-05-09T10:28:49.792Z,29.66
2023-05-09T10:31:32.703Z,29.09
2023-05-09T10:34:12.320Z,28.56
2023-05-09T10:36:40.343Z,28.68
2023-05-09T10:39:08.547Z,28.75
2023-05-09T10:41:37.653Z,28.60
2023-05-09T10:44:06.412Z,28.29
2023-05-09T10:46:36.172Z,27.92
2023-05-09T10:49:04.608Z,27.88
2023-05-09T10:51:33.152Z,28.13
2023-05-09T10:54:01.009Z,27.70
2023-05-09T10:56:34.124Z,27.48
2023-05-09T10:59:03.225Z,27.75
2023-05-09T11:01:39.235Z,27.76
2023-05-09T11:04:16.747Z,27.48
2023-05-09T11:06:51.956Z,26.94
2023-05-09T11:09:34.683Z,27.17
2023-05-09T11:12:05.566Z,27.07
2023-05-09T11:14:47.016Z,27.28
2023-05-09T11:17:29.415Z,27.49
2023-05-09T11:20:00.061Z,27.52
2023-05-09T11:22:42.862Z,26.83
2023-05-09T11:25:13.982Z,27.12
2023-05-09T11:27:44.297Z,27.36
2023-05-09T11:30:19.665Z,27.23
2023-05-09T11:32:56.171Z,27.08
2023-05-09T11:35:26.996Z,27.24
2023-05-09T11:38:06.807Z,26.74
2023-05-09T11:40:35.337Z,26.81
2023-05-09T11:43:03.403Z,26.12
2023-05-09T11:45:34.016Z,26.37
2023-05-09T11:48:08.319Z,26.60
2023-05-09T11:50:36.304Z,26.22
2023-05-09T11:53:04.366Z,26.24
2023-05-09T11:55:32.851Z,26.10
2023-05-09T11:58:00.880Z,26.17
2023-05-09T12:00:28.965Z,26.50
2023-05-09T12:02:57.049Z,26.75
2023-05-09T12:05:25.132Z,26.93
2023-05-09T12:07:53.141Z,27.01
2023-05-09T12:10:23.317Z,26.76
2023-05-09T12:12:55.784Z,26.48
2023-05-09T12:15:24.635Z,26.47
2023-05-09T12:18:05.597Z,26.36
2023-05-09T12:20:41.725Z,25.55
2023-05-09T12:23:12.733Z,25.60
2023-05-09T12:25:56.147Z,25.97
2023-05-09T12:28:25.487Z,25.53
2023-05-09T12:30:54.581Z,25.73
2023-05-09T12:33:23.213Z,25.91
2023-05-09T12:36:05.984Z,25.98
2023-05-09T12:38:34.001Z,25.24
2023-05-09T12:41:15.464Z,25.46
2023-05-09T12:43:55.940Z,25.92
2023-05-09T12:46:24.517Z,26.16
2023-05-09T12:48:52.553Z,26.00
2023-05-09T12:51:22.247Z,25.96
2023-05-09T12:53:50.286Z,26.09
2023-05-09T12:56:28.411Z,26.09
2023-05-09T12:58:56.229Z,25.74
2023-05-09T13:01:29.270Z,25.62
2023-05-09T13:04:06.784Z,25.86
2023-05-09T13:06:36.391Z,26.02
2023-05-09T13:09:09.122Z,26.03
2023-05-09T13:11:38.175Z,25.79
2023-05-09T13:14:06.229Z,25.79
2023-05-09T13:16:34.842Z,25.75
2023-05-09T13:19:02.949Z,25.62
2023-05-09T13:21:32.364Z,25.36
2023-05-09T13:24:00.214Z,25.42
2023-05-09T13:26:28.158Z,25.89
2023-05-09T13:28:57.115Z,26.14
2023-05-09T13:31:25.386Z,25.76
2023-05-09T13:33:53.377Z,25.08
2023-05-09T13:36:21.429Z,25.44
2023-05-09T13:38:49.380Z,25.54
2023-05-09T13:41:21.188Z,25.69
2023-05-09T13:43:49.684Z,25.73
2023-05-09T13:46:17.671Z,25.47
2023-05-09T13:48:45.880Z,25.43
2023-05-09T13:51:14.052Z,25.54
2023-05-09T13:53:42.125Z,25.84
2023-05-09T13:56:09.961Z,25.91
2023-05-09T13:58:38.092Z,25.52
2023-05-09T14:01:06.016Z,25.70
2023-05-09T14:03:33.927Z,25.89
2023-05-09T14:06:01.863Z,25.87
2023-05-09T14:08:29.795Z,25.74
2023-05-09T14:10:57.630Z,25.75
2023-05-09T14:13:25.642Z,25.64
2023-05-09T14:15:53.802Z,25.66
2023-05-09T14:18:21.818Z,25.80
2023-05-09T14:20:50.092Z,25.93
2023-05-09T14:23:17.894Z,26.00
2023-05-09T14:25:45.753Z,26.07
2023-05-09T14:28:14.709Z,26.00
2023-05-09T14:30:42.772Z,25.71
2023-05-09T14:33:10.742Z,25.64
2023-05-09T14:35:41.059Z,25.72
2023-05-09T14:38:09.573Z,25.66
2023-05-09T14:40:37.453Z,25.59
2023-05-09T14:43:06.068Z,25.60
2023-05-09T14:45:34.303Z,25.85
2023-05-09T14:48:05.829Z,25.88
2023-05-09T14:50:33.756Z,25.61
2023-05-09T14:53:02.234Z,25.72
2023-05-09T14:55:31.508Z,25.55
2023-05-09T14:57:59.564Z,25.33
2023-05-09T15:00:28.979Z,25.38
2023-05-09T15:02:57.968Z,25.48
2023-05-09T15:05:25.921Z,25.51
2023-05-09T15:07:53.844Z,25.60
2023-05-09T15:10:21.865Z,25.66
2023-05-09T15:12:49.769Z,25.77
2023-05-09T15:15:20.704Z,25.84
2023-05-09T15:17:48.790Z,25.65
2023-05-09T15:20:19.968Z,25.46
2023-05-09T15:22:50.091Z,25.54
2023-05-09T15:25:18.436Z,25.86
2023-05-09T15:27:46.510Z,26.01
2023-05-09T15:30:14.880Z,26.05
2023-05-09T15:32:43.247Z,26.08
2023-05-09T15:35:11.606Z,26.25
2023-05-09T15:37:40.383Z,26.31
2023-05-09T15:40:09.334Z,25.88
2023-05-09T15:42:38.963Z,25.40
2023-05-09T15:45:07.889Z,25.24
2023-05-09T15:47:36.214Z,25.29
2023-05-09T15:50:04.678Z,25.33
2023-05-09T15:52:32.664Z,25.44
2023-05-09T15:55:01.359Z,25.46
2023-05-09T15:57:29.554Z,25.72
2023-05-09T15:59:57.518Z,25.76
2023-05-09T16:02:25.418Z,25.50
2023-05-09T16:04:53.521Z,25.49
2023-05-09T16:07:22.043Z,25.34
2023-05-09T16:09:50.160Z,25.34
2023-05-09T16:12:18.078Z,25.27
2023-05-09T16:14:46.096Z,25.38
2023-05-09T16:17:14.103Z,25.57
2023-05-09T16:19:42.540Z,25.43
2023-05-09T16:22:10.605Z,25.22
2023-05-09T16:24:40.148Z,25.00
2023-05-09T16:27:08.373Z,24.52
2023-05-09T16:29:36.535Z,24.02
2023-05-09T16:32:05.092Z,23.74
2023-05-09T16:34:33.325Z,23.63
2023-05-09T16:37:02.666Z,23.50
2023-05-09T16:39:30.834Z,23.45
2023-05-09T16:41:58.839Z,23.13
2023-05-09T16:44:26.931Z,22.98
2023-05-09T16:46:54.989Z,22.88
2023-05-09T16:49:23.097Z,23.20
2023-05-09T16:51:51.431Z,23.07
2023-05-09T16:54:19.408Z,23.01
2023-05-09T16:56:47.377Z,22.81
2023-05-09T16:59:15.469Z,22.87
2023-05-09T17:01:43.609Z,22.77
2023-05-09T17:04:11.731Z,22.84
2023-05-09T17:06:40.169Z,22.97
2023-05-09T17:09:08.107Z,22.95
2023-05-09T17:11:35.922Z,23.08
2023-05-09T17:14:04.013Z,23.14
2023-05-09T17:16:32.492Z,23.27
2023-05-09T17:19:00.369Z,23.37
2023-05-09T17:21:29.436Z,23.42
2023-05-09T17:23:57.262Z,23.58
2023-05-09T17:26:26.038Z,23.61
2023-05-09T17:28:54.072Z,23.68
2023-05-09T17:31:21.940Z,23.72
2023-05-09T17:33:50.396Z,24.03
2023-05-09T17:36:18.235Z,24.11
2023-05-09T17:38:46.149Z,24.16
2023-05-09T17:41:13.953Z,24.30
2023-05-09T17:43:41.693Z,24.50
2023-05-09T17:46:09.480Z,24.81
2023-05-09T17:48:37.380Z,25.29
2023-05-09T17:51:05.261Z,25.75
2023-05-09T17:53:33.158Z,26.17
2023-05-09T17:56:01.294Z,26.56
2023-05-09T17:58:30.030Z,26.95
2023-05-09T18:00:59.750Z,27.27
2023-05-09T18:03:29.208Z,27.63
2023-05-09T18:05:57.298Z,28.11
2023-05-09T18:08:25.225Z,28.49
2023-05-09T18:10:56.804Z,28.83
2023-05-09T18:13:25.165Z,29.14
2023-05-09T18:15:55.244Z,29.63
2023-05-09T18:18:23.211Z,30.07
2023-05-09T18:20:51.848Z,30.62
2023-05-09T18:23:22.168Z,30.93
2023-05-09T18:25:50.292Z,31.12
2023-05-09T18:28:24.800Z,31.50
2023-05-09T18:30:54.978Z,31.48
2023-05-09T18:33:25.364Z,31.85
2023-05-09T18:35:55.162Z,32.06
2023-05-09T18:38:23.024Z,32.36
2023-05-09T18:40:52.316Z,32.61
2023-05-09T18:43:21.729Z,32.70
2023-05-09T18:45:50.247Z,32.85
2023-05-09T18:48:18.153Z,33.29
2023-05-09T18:50:46.002Z,33.57
2023-05-09T18:53:13.870Z,33.78
2023-05-09T18:55:42.897Z,34.06
2023-05-09T18:58:11.194Z,34.14
2023-05-09T19:00:40.005Z,34.46
2023-05-09T19:03:07.956Z,34.77
2023-05-09T19:05:36.032Z,35.06
2023-05-09T19:08:04.397Z,35.32
2023-05-09T19:10:32.376Z,35.63
2023-05-09T19:13:06.222Z,35.76
2023-05-09T19:15:34.989Z,35.84
2023-05-09T19:18:04.276Z,36.40
2023-05-09T19:20:32.543Z,36.61
2023-05-09T19:23:01.793Z,36.73
2023-05-09T19:25:33.820Z,36.77
2023-05-09T19:28:05.030Z,36.78
2023-05-09T19:30:36.129Z,37.22
2023-05-09T19:33:04.442Z,37.76
2023-05-09T19:35:32.729Z,38.00
2023-05-09T19:38:00.508Z,37.76
2023-05-09T19:40:29.101Z,38.04
2023-05-09T19:42:56.993Z,38.34
2023-05-09T19:45:27.499Z,38.43
2023-05-09T19:47:55.627Z,38.46
2023-05-09T19:50:23.801Z,39.00
2023-05-09T19:52:54.381Z,39.20
2023-05-09T19:55:22.524Z,39.24
2023-05-09T19:57:50.569Z,39.45
2023-05-09T20:00:22.428Z,39.63
2023-05-09T20:02:50.580Z,39.70
2023-05-09T20:05:18.932Z,39.89
2023-05-09T20:07:47.241Z,39.97
2023-05-09T20:10:15.829Z,40.23
2023-05-09T20:12:44.741Z,40.44
2023-05-09T20:15:12.825Z,40.67
2023-05-09T20:17:40.996Z,40.77
2023-05-09T20:20:10.393Z,40.92
2023-05-09T20:22:40.981Z,41.08
2023-05-09T20:25:09.895Z,41.39
2023-05-09T20:27:39.489Z,41.64
2023-05-09T20:30:08.259Z,42.03
2023-05-09T20:32:36.105Z,42.37
2023-05-09T20:35:05.781Z,42.41
2023-05-09T20:37:33.745Z,42.52
2023-05-09T20:40:03.497Z,42.83
2023-05-09T20:42:31.396Z,42.75
2023-05-09T20:44:59.373Z,43.07
2023-05-09T20:47:27.261Z,43.33
2023-05-09T20:49:56.237Z,43.62
2023-05-09T20:52:26.064Z,43.69
2023-05-09T20:54:53.935Z,44.06
2023-05-09T20:57:22.009Z,44.13
2023-05-09T20:59:49.881Z,44.11
2023-05-09T21:02:17.796Z,44.18
2023-05-09T21:04:45.690Z,44.52
2023-05-09T21:07:13.698Z,44.40
2023-05-09T21:09:41.557Z,44.17
2023-05-09T21:12:11.130Z,44.26
2023-05-09T21:14:39.340Z,44.47
2023-05-09T21:17:07.272Z,44.32
2023-05-09T21:19:35.128Z,44.28
2023-05-09T21:22:03.035Z,44.30
2023-05-09T21:24:30.872Z,44.31
2023-05-09T21:26:58.734Z,44.26
2023-05-09T21:29:26.693Z,44.26
2023-05-09T21:31:54.725Z,44.21
2023-05-09T21:34:22.601Z,44.06
2023-05-09T21:36:50.414Z,44.38
2023-05-09T21:39:18.356Z,44.37
2023-05-09T21:41:46.142Z,44.32
2023-05-09T21:44:14.033Z,44.39
2023-05-09T21:46:43.603Z,44.76
2023-05-09T21:49:12.650Z,44.76
2023-05-09T21:51:40.516Z,44.63
2023-05-09T21:54:08.371Z,44.81
2023-05-09T21:56:36.328Z,44.67
2023-05-09T21:59:04.213Z,44.96
2023-05-09T22:01:32.129Z,45.27
2023-05-09T22:04:00.265Z,45.17
2023-05-09T22:06:28.151Z,45.08
2023-05-09T22:08:55.999Z,44.96
2023-05-09T22:11:24.523Z,45.32
2023-05-09T22:13:52.397Z,45.51
2023-05-09T22:16:22.581Z,45.60
2023-05-09T22:18:50.477Z,45.92
2023-05-09T22:21:18.425Z,46.14
2023-05-09T22:23:46.383Z,46.42
2023-05-09T22:26:14.194Z,46.30
2023-05-09T22:28:42.053Z,46.47
2023-05-09T22:31:10.766Z,46.72
2023-05-09T22:33:38.853Z,46.86
2023-05-09T22:36:07.385Z,46.90
2023-05-09T22:38:35.356Z,46.91
2023-05-09T22:41:03.248Z,47.19
2023-05-09T22:43:38.627Z,47.33
2023-05-09T22:46:07.752Z,47.42
2023-05-09T22:48:35.721Z,47.51
2023-05-09T22:51:03.898Z,47.75
2023-05-09T22:53:32.885Z,47.84
2023-05-09T22:56:00.849Z,48.00
2023-05-09T22:58:28.830Z,48.06
2023-05-09T23:00:56.727Z,48.17
2023-05-09T23:03:24.877Z,48.36
2023-05-09T23:05:52.948Z,48.57
2023-05-09T23:08:20.772Z,48.71
2023-05-09T23:10:49.083Z,48.82
2023-05-09T23:13:17.308Z,49.03
2023-05-09T23:15:47.878Z,49.15
2023-05-09T23:18:15.933Z,49.27
2023-05-09T23:20:45.433Z,49.34
2023-05-09T23:23:13.300Z,49.31
2023-05-09T23:25:41.153Z,49.70
2023-05-09T23:28:09.031Z,49.90
2023-05-09T23:30:36.892Z,50.09
2023-05-09T23:33:04.856Z,50.05
2023-05-09T23:35:32.987Z,50.40
2023-05-09T23:38:00.934Z,50.45
2023-05-09T23:40:28.660Z,50.69
2023-05-09T23:42:56.991Z,50.66
2023-05-09T23:45:24.951Z,50.89
2023-05-09T23:47:53.044Z,50.90
2023-05-09T23:50:21.068Z,50.99
2023-05-09T23:52:51.266Z,51.53
2023-05-09T23:55:19.193Z,51.29
2023-05-09T23:57:47.329Z,51.64
